Time;durP1;ratioP1;P1;durP2;ratioP2;P2;SDS_P1;SDS_P2;PMS_P1;PMS_P2;Temp;Humidity;BMP_temperature;BMP_pressure;BME280_temperature;BME280_humidity;BME280_pressure;Samples;Min_cycle;Max_cycle;Signal;HPM_P1;HPM_P2
2022/08/22 00:02:06;;;;;;;;;;;17.70;99.90;;;;;;5042237;28;20028;-60
2022/08/22 00:04:36;;;;;;;;;;;17.60;99.90;;;;;;5038883;28;19954;-61
2022/08/22 00:07:07;;;;;;;;;;;17.60;99.90;;;;;;5048777;28;19924;-61
2022/08/22 00:09:37;;;;;;;;;;;17.60;99.90;;;;;;5060493;28;20019;-61
2022/08/22 00:12:08;;;;;;;;;;;17.60;99.90;;;;;;5043426;28;20388;-62
2022/08/22 00:14:39;;;;;;;;;;;17.60;99.90;;;;;;5044850;28;20023;-61
2022/08/22 00:17:16;;;;;;;;;;;17.60;99.90;;;;;;5051435;28;19968;-61
2022/08/22 00:19:46;;;;;;;;;;;17.60;99.90;;;;;;5050947;28;19931;-62
2022/08/22 00:22:18;;;;;;;;;;;17.60;99.90;;;;;;5049632;28;19931;-61
2022/08/22 00:24:48;;;;;;;;;;;17.50;99.90;;;;;;5063609;28;20034;-62
2022/08/22 00:27:16;;;;;;;;;;;17.60;99.90;;;;;;5042238;28;20451;-62
2022/08/22 00:29:45;;;;;;;;;;;17.50;99.90;;;;;;5050333;28;19925;-62
2022/08/22 00:32:14;;;;;;;;;;;17.50;99.90;;;;;;5056041;28;19931;-62
2022/08/22 00:34:45;;;;;;;;;;;17.50;99.90;;;;;;5043412;28;19964;-62
2022/08/22 00:37:17;;;;;;;;;;;17.60;99.90;;;;;;5055563;28;20111;-62
2022/08/22 00:39:49;;;;;;;;;;;17.50;99.90;;;;;;5041264;28;19933;-62
2022/08/22 00:42:29;;;;;;;;;;;17.30;99.90;;;;;;5040825;28;19925;-62
2022/08/22 00:45:25;;;;;;;;;;;17.20;99.90;;;;;;5055193;28;19928;-62
2022/08/22 00:47:59;;;;;;;;;;;17.10;99.90;;;;;;4969781;28;19925;-61
2022/08/22 00:50:33;;;;;;;;;;;17.10;99.90;;;;;;5028434;28;19929;-61
2022/08/22 00:53:10;;;;;;;;;;;17.00;99.90;;;;;;5040550;28;19932;-61
2022/08/22 00:55:43;;;;;;;;;;;16.90;99.90;;;;;;5040976;28;19931;-62
2022/08/22 00:58:25;;;;;;;;;;;16.90;99.90;;;;;;5040801;28;19924;-62
2022/08/22 01:00:53;;;;;;;;;;;16.90;99.90;;;;;;5054362;28;19925;-61
2022/08/22 01:03:38;;;;;;;;;;;16.90;99.90;;;;;;5038377;28;19935;-62
2022/08/22 01:06:13;;;;;;;;;;;17.00;99.90;;;;;;5047218;28;20031;-62
2022/08/22 01:08:46;;;;;;;;;;;17.00;99.90;;;;;;5050646;28;19924;-61
2022/08/22 01:11:27;;;;;;;;;;;17.10;99.90;;;;;;5051508;28;19932;-61
2022/08/22 01:14:08;;;;;;;;;;;17.20;99.90;;;;;;5041187;28;19931;-61
2022/08/22 01:16:48;;;;;;;;;;;17.30;99.90;;;;;;5041708;28;19925;-61
2022/08/22 01:19:29;;;;;;;;;;;17.20;99.90;;;;;;5040085;28;20065;-62
2022/08/22 01:22:14;;;;;;;;;;;17.10;99.90;;;;;;5048091;28;19929;-62
2022/08/22 01:27:58;;;;;;;;;;;17.10;99.90;;;;;;5044518;28;20406;-61
2022/08/22 01:30:40;;;;;;;;;;;17.10;99.90;;;;;;5047406;28;20017;-61
2022/08/22 01:33:23;;;;;;;;;;;17.10;99.90;;;;;;5045747;28;20400;-61
2022/08/22 01:36:09;;;;;;;;;;;17.10;99.90;;;;;;5049595;28;19933;-61
2022/08/22 01:38:57;;;;;;;;;;;17.10;99.90;;;;;;5044424;28;19924;-61
2022/08/22 01:41:33;;;;;;;;;;;17.20;99.90;;;;;;5012443;28;19929;-61
2022/08/22 01:44:11;;;;;;;;;;;17.20;99.90;;;;;;5046171;28;19924;-62
2022/08/22 01:46:44;;;;;;;;;;;17.20;99.90;;;;;;5042181;28;19947;-62
2022/08/22 01:49:15;;;;;;;;;;;17.20;99.90;;;;;;5037946;28;20020;-62
2022/08/22 01:51:46;;;;;;;;;;;17.10;99.90;;;;;;5042801;28;19925;-62
2022/08/22 01:54:20;;;;;;;;;;;17.00;99.90;;;;;;5040475;28;20298;-63
2022/08/22 01:56:47;;;;;;;;;;;17.00;99.90;;;;;;5040383;28;20294;-63
2022/08/22 01:59:20;;;;;;;;;;;17.10;99.90;;;;;;5042095;28;19924;-62
2022/08/22 02:01:53;;;;;;;;;;;17.10;99.90;;;;;;5046503;28;19925;-62
2022/08/22 02:04:29;;;;;;;;;;;17.10;99.90;;;;;;5037084;28;20384;-62
2022/08/22 02:07:02;;;;;;;;;;;17.10;99.90;;;;;;5051479;28;19963;-62
2022/08/22 02:09:33;;;;;;;;;;;17.00;99.90;;;;;;5048219;28;19929;-62
2022/08/22 02:12:12;;;;;;;;;;;17.00;99.90;;;;;;5047660;28;20334;-62
2022/08/22 02:14:41;;;;;;;;;;;17.10;99.90;;;;;;5041628;28;20051;-62
2022/08/22 02:17:12;;;;;;;;;;;17.10;99.90;;;;;;5040032;28;19933;-62
2022/08/22 02:19:40;;;;;;;;;;;17.10;99.90;;;;;;5042445;28;20406;-62
2022/08/22 02:22:21;;;;;;;;;;;17.10;99.90;;;;;;5041918;28;20431;-62
2022/08/22 02:24:50;;;;;;;;;;;17.10;99.90;;;;;;5054473;28;19994;-62
2022/08/22 02:27:23;;;;;;;;;;;17.10;99.90;;;;;;5041497;28;19931;-63
2022/08/22 02:29:53;;;;;;;;;;;17.20;99.90;;;;;;5052096;28;19978;-63
2022/08/22 02:32:22;;;;;;;;;;;17.30;99.90;;;;;;5040019;28;20463;-63
2022/08/22 02:34:54;;;;;;;;;;;17.30;99.90;;;;;;5041157;28;19929;-62
2022/08/22 02:37:29;;;;;;;;;;;17.30;99.90;;;;;;5045830;28;20027;-62
2022/08/22 02:40:04;;;;;;;;;;;17.20;99.90;;;;;;5041540;28;19940;-63
2022/08/22 02:42:36;;;;;;;;;;;17.30;99.90;;;;;;5038118;28;19961;-62
2022/08/22 02:45:11;;;;;;;;;;;17.20;99.90;;;;;;5036255;28;19935;-62
2022/08/22 02:47:41;;;;;;;;;;;17.20;99.90;;;;;;5046827;28;20443;-62
2022/08/22 02:50:13;;;;;;;;;;;17.10;99.90;;;;;;5052843;28;19929;-62
2022/08/22 02:52:49;;;;;;;;;;;17.10;99.90;;;;;;5036322;28;20336;-61
2022/08/22 02:55:18;;;;;;;;;;;17.10;99.90;;;;;;5043108;28;20407;-61
2022/08/22 02:57:51;;;;;;;;;;;17.10;99.90;;;;;;5041247;28;20264;-61
2022/08/22 03:00:26;;;;;;;;;;;16.90;99.90;;;;;;5049619;28;19925;-61
2022/08/22 03:03:02;;;;;;;;;;;16.80;99.90;;;;;;5043504;28;20215;-61
2022/08/22 03:05:29;;;;;;;;;;;16.90;99.90;;;;;;5043345;28;19936;-61
2022/08/22 03:08:02;;;;;;;;;;;17.00;99.90;;;;;;5053859;28;19929;-61
2022/08/22 03:10:34;;;;;;;;;;;17.00;99.90;;;;;;5056205;28;20015;-61
2022/08/22 03:13:06;;;;;;;;;;;17.10;99.90;;;;;;5061456;28;19968;-61
2022/08/22 03:15:36;;;;;;;;;;;17.10;99.90;;;;;;5043478;28;20449;-62
2022/08/22 03:18:05;;;;;;;;;;;17.10;99.90;;;;;;5043207;28;19932;-62
2022/08/22 03:20:42;;;;;;;;;;;16.90;99.90;;;;;;5044691;28;19925;-61
2022/08/22 03:23:13;;;;;;;;;;;16.90;99.90;;;;;;5042075;28;19929;-61
2022/08/22 03:25:43;;;;;;;;;;;16.90;99.90;;;;;;5050952;28;19925;-61
2022/08/22 03:28:12;;;;;;;;;;;16.80;99.90;;;;;;5048917;28;19932;-62
2022/08/22 03:30:42;;;;;;;;;;;16.80;99.90;;;;;;5046182;28;20019;-61
2022/08/22 03:33:17;;;;;;;;;;;16.70;99.90;;;;;;5041808;28;20020;-61
2022/08/22 03:36:04;;;;;;;;;;;16.70;99.90;;;;;;5047446;28;20024;-61
2022/08/22 03:38:40;;;;;;;;;;;16.70;99.90;;;;;;5047737;28;19935;-60
2022/08/22 03:41:13;;;;;;;;;;;16.70;99.90;;;;;;5046583;28;19951;-62
2022/08/22 03:43:49;;;;;;;;;;;16.70;99.90;;;;;;5046462;28;19925;-60
2022/08/22 03:46:46;;;;;;;;;;;16.80;99.90;;;;;;5046209;28;20020;-61
2022/08/22 03:49:31;;;;;;;;;;;16.70;99.90;;;;;;4974477;28;20363;-61
2022/08/22 03:52:06;;;;;;;;;;;16.80;99.90;;;;;;5036262;28;19924;-61
2022/08/22 03:55:00;;;;;;;;;;;16.80;99.90;;;;;;5042132;28;19961;-61
2022/08/22 03:57:44;;;;;;;;;;;16.80;99.90;;;;;;5045144;28;20323;-61
2022/08/22 04:00:18;;;;;;;;;;;16.80;99.90;;;;;;5050139;28;19932;-61
2022/08/22 04:02:59;;;;;;;;;;;16.80;99.90;;;;;;5044332;28;19936;-61
2022/08/22 04:05:34;;;;;;;;;;;16.80;99.90;;;;;;5011698;28;19925;-61
2022/08/22 04:08:14;;;;;;;;;;;16.80;99.90;;;;;;5050200;28;20311;-60
2022/08/22 04:10:55;;;;;;;;;;;16.80;99.90;;;;;;5055215;28;19935;-61
2022/08/22 04:13:31;;;;;;;;;;;16.80;99.90;;;;;;5043235;28;19925;-60
2022/08/22 04:16:06;;;;;;;;;;;16.80;99.90;;;;;;5040484;28;20296;-61
2022/08/22 04:18:57;;;;;;;;;;;16.80;99.90;;;;;;5049603;28;20388;-62
2022/08/22 04:21:37;;;;;;;;;;;16.80;99.90;;;;;;5058344;28;20020;-61
2022/08/22 04:24:13;;;;;;;;;;;16.70;99.90;;;;;;5060558;28;19970;-62
2022/08/22 04:26:44;;;;;;;;;;;16.80;99.90;;;;;;5051926;28;19925;-61
2022/08/22 04:29:15;;;;;;;;;;;16.80;99.90;;;;;;5061584;28;20003;-60
2022/08/22 04:31:46;;;;;;;;;;;16.80;99.90;;;;;;5053020;28;19971;-61
2022/08/22 04:34:16;;;;;;;;;;;16.80;99.90;;;;;;5049713;28;20276;-61
2022/08/22 04:36:49;;;;;;;;;;;16.80;99.90;;;;;;5052219;28;19960;-61
2022/08/22 04:39:17;;;;;;;;;;;16.80;99.90;;;;;;5043004;28;20132;-61
2022/08/22 04:41:48;;;;;;;;;;;16.70;99.90;;;;;;5048754;28;19939;-61
2022/08/22 04:44:21;;;;;;;;;;;16.70;99.90;;;;;;5054737;28;19934;-62
2022/08/22 04:46:52;;;;;;;;;;;16.70;99.90;;;;;;5050137;28;20024;-61
2022/08/22 04:49:23;;;;;;;;;;;16.70;99.90;;;;;;5048239;28;20066;-61
2022/08/22 04:51:52;;;;;;;;;;;16.80;99.90;;;;;;5043543;28;20419;-61
2022/08/22 04:54:30;;;;;;;;;;;16.80;99.90;;;;;;5056992;28;20012;-59
2022/08/22 04:57:09;;;;;;;;;;;16.80;99.90;;;;;;5046546;28;19933;-60
2022/08/22 04:59:35;;;;;;;;;;;16.80;99.90;;;;;;5035119;28;19933;-65
2022/08/22 05:02:05;;;;;;;;;;;16.80;99.90;;;;;;5051504;28;20023;-64
2022/08/22 05:04:34;;;;;;;;;;;16.80;99.90;;;;;;5054390;28;20440;-66
2022/08/22 05:07:05;;;;;;;;;;;16.90;99.90;;;;;;5049372;28;19931;-65
2022/08/22 05:09:34;;;;;;;;;;;16.90;99.90;;;;;;5049638;28;20047;-65
2022/08/22 05:12:04;;;;;;;;;;;16.90;99.90;;;;;;5048829;28;20288;-65
2022/08/22 05:14:35;;;;;;;;;;;16.90;99.90;;;;;;5048898;28;19925;-65
2022/08/22 05:17:03;;;;;;;;;;;17.00;99.90;;;;;;5055482;28;20379;-65
2022/08/22 05:19:32;;;;;;;;;;;17.00;99.90;;;;;;5052893;28;19926;-66
2022/08/22 05:21:59;;;;;;;;;;;17.00;99.90;;;;;;5052169;28;20414;-64
2022/08/22 05:24:28;;;;;;;;;;;17.00;99.90;;;;;;5050676;28;19932;-65
2022/08/22 05:26:56;;;;;;;;;;;17.00;99.90;;;;;;5060750;28;20024;-64
2022/08/22 05:29:25;;;;;;;;;;;17.00;99.90;;;;;;5066789;28;19931;-67
2022/08/22 05:31:54;;;;;;;;;;;17.10;99.90;;;;;;5045610;28;19968;-65
2022/08/22 05:34:22;;;;;;;;;;;17.10;99.90;;;;;;5047640;28;19929;-65
2022/08/22 05:36:52;;;;;;;;;;;17.10;99.90;;;;;;5056718;28;19967;-65
2022/08/22 05:39:21;;;;;;;;;;;17.10;99.90;;;;;;5062218;28;20325;-64
2022/08/22 05:41:49;;;;;;;;;;;17.10;99.90;;;;;;5054886;28;19925;-65
2022/08/22 05:44:18;;;;;;;;;;;17.10;99.90;;;;;;5054668;28;19924;-64
2022/08/22 05:46:46;;;;;;;;;;;17.10;99.90;;;;;;5064018;28;19926;-65
2022/08/22 05:49:17;;;;;;;;;;;17.10;99.90;;;;;;5057585;28;19938;-65
2022/08/22 05:51:48;;;;;;;;;;;17.10;99.90;;;;;;5058661;28;19974;-64
2022/08/22 05:54:18;;;;;;;;;;;17.10;99.90;;;;;;5045696;28;19995;-64
2022/08/22 05:56:47;;;;;;;;;;;17.10;99.90;;;;;;5050280;28;19924;-65
2022/08/22 05:59:22;;;;;;;;;;;17.10;99.90;;;;;;5046988;28;19924;-65
2022/08/22 06:01:54;;;;;;;;;;;17.10;99.90;;;;;;5051020;28;19925;-65
2022/08/22 06:04:30;;;;;;;;;;;17.10;99.90;;;;;;5062797;28;19925;-65
2022/08/22 06:06:59;;;;;;;;;;;17.10;99.90;;;;;;5055469;28;20031;-65
2022/08/22 06:09:30;;;;;;;;;;;17.20;99.90;;;;;;5053184;28;20019;-65
2022/08/22 06:11:59;;;;;;;;;;;17.10;99.90;;;;;;5050522;28;20356;-65
2022/08/22 06:14:29;;;;;;;;;;;17.10;99.90;;;;;;5062709;28;20291;-65
2022/08/22 06:17:00;;;;;;;;;;;17.20;99.90;;;;;;5048556;28;19933;-66
2022/08/22 06:19:28;;;;;;;;;;;17.10;99.90;;;;;;5062551;28;19925;-66
2022/08/22 06:21:56;;;;;;;;;;;17.10;99.90;;;;;;5050735;28;19940;-66
2022/08/22 06:24:24;;;;;;;;;;;17.10;99.90;;;;;;5057563;28;20287;-65
2022/08/22 06:26:53;;;;;;;;;;;17.20;99.90;;;;;;5048250;28;19970;-65
2022/08/22 06:29:22;;;;;;;;;;;17.10;99.90;;;;;;5060222;28;19931;-65
2022/08/22 06:31:49;;;;;;;;;;;17.20;99.90;;;;;;5056307;28;19935;-66
2022/08/22 06:34:17;;;;;;;;;;;17.20;99.90;;;;;;5053172;28;19928;-64
2022/08/22 06:36:47;;;;;;;;;;;17.20;99.90;;;;;;5050388;28;20007;-64
2022/08/22 06:39:17;;;;;;;;;;;17.20;99.90;;;;;;5058706;28;20400;-64
2022/08/22 06:41:47;;;;;;;;;;;17.20;99.90;;;;;;5067645;28;19972;-64
2022/08/22 06:44:16;;;;;;;;;;;17.30;99.90;;;;;;5045993;28;19932;-64
2022/08/22 06:46:45;;;;;;;;;;;17.30;99.90;;;;;;5042132;28;19935;-65
2022/08/22 06:49:12;;;;;;;;;;;17.30;99.90;;;;;;5050991;28;20344;-65
2022/08/22 06:51:39;;;;;;;;;;;17.40;99.90;;;;;;5051786;28;20407;-65
2022/08/22 06:54:08;;;;;;;;;;;17.50;99.90;;;;;;5059142;28;19971;-65
2022/08/22 06:56:38;;;;;;;;;;;17.50;99.90;;;;;;5051989;28;19924;-67
2022/08/22 06:59:07;;;;;;;;;;;17.60;99.90;;;;;;5055254;28;19932;-66
2022/08/22 07:01:35;;;;;;;;;;;17.70;99.90;;;;;;5044227;28;19943;-65
2022/08/22 07:04:05;;;;;;;;;;;17.70;99.90;;;;;;5044545;28;19924;-65
2022/08/22 07:06:34;;;;;;;;;;;17.70;99.90;;;;;;5053390;28;19924;-64
2022/08/22 07:09:00;;;;;;;;;;;17.80;99.90;;;;;;5060990;28;20015;-66
2022/08/22 07:11:29;;;;;;;;;;;17.80;99.90;;;;;;5056673;28;19952;-66
2022/08/22 07:13:58;;;;;;;;;;;17.90;99.90;;;;;;5047546;28;20320;-66
2022/08/22 07:16:27;;;;;;;;;;;18.00;99.90;;;;;;5044739;28;21404;-65
2022/08/22 07:18:54;;;;;;;;;;;18.10;99.90;;;;;;5043622;28;19935;-67
2022/08/22 07:21:26;;;;;;;;;;;18.20;99.90;;;;;;5050747;28;20478;-66
2022/08/22 07:23:54;;;;;;;;;;;18.30;99.90;;;;;;5052590;28;19925;-66
2022/08/22 07:26:27;;;;;;;;;;;18.40;99.90;;;;;;5057566;28;20387;-66
2022/08/22 07:28:57;;;;;;;;;;;18.40;99.90;;;;;;5065109;28;19924;-68
2022/08/22 07:31:30;;;;;;;;;;;18.50;99.90;;;;;;5054059;28;19928;-67
2022/08/22 07:33:59;;;;;;;;;;;18.70;99.90;;;;;;5053773;28;19936;-67
2022/08/22 07:36:29;;;;;;;;;;;18.80;99.90;;;;;;5060961;28;20011;-67
2022/08/22 07:39:03;;;;;;;;;;;18.90;99.90;;;;;;5051713;28;19964;-66
2022/08/22 07:41:34;;;;;;;;;;;18.90;99.90;;;;;;5059989;28;20367;-66
2022/08/22 07:44:06;;;;;;;;;;;19.10;99.90;;;;;;5059429;28;20346;-67
2022/08/22 07:46:34;;;;;;;;;;;19.40;99.90;;;;;;5056784;28;19931;-66
2022/08/22 07:49:06;;;;;;;;;;;19.60;99.90;;;;;;5048336;28;19932;-66
2022/08/22 07:51:34;;;;;;;;;;;20.00;99.90;;;;;;5047156;28;20016;-66
2022/08/22 07:54:03;;;;;;;;;;;20.20;99.90;;;;;;5056488;28;19947;-67
2022/08/22 07:56:32;;;;;;;;;;;20.70;99.90;;;;;;5055287;28;19931;-66
2022/08/22 07:59:01;;;;;;;;;;;21.50;99.90;;;;;;5065204;28;20015;-66
2022/08/22 08:01:29;;;;;;;;;;;21.60;99.90;;;;;;5049252;28;20383;-66
2022/08/22 08:03:58;;;;;;;;;;;21.60;99.90;;;;;;5062228;28;19929;-65
2022/08/22 08:06:26;;;;;;;;;;;21.80;99.90;;;;;;5045778;28;20015;-66
2022/08/22 08:08:54;;;;;;;;;;;21.90;99.90;;;;;;5043862;28;20003;-66
2022/08/22 08:11:22;;;;;;;;;;;21.80;99.90;;;;;;5047576;28;19925;-66
2022/08/22 08:13:51;;;;;;;;;;;21.90;99.90;;;;;;5059214;28;19925;-66
2022/08/22 08:16:23;;;;;;;;;;;22.40;99.00;;;;;;5056356;28;19937;-67
2022/08/22 08:18:53;;;;;;;;;;;23.20;97.80;;;;;;5055166;28;19970;-67
2022/08/22 08:21:26;;;;;;;;;;;25.40;94.40;;;;;;5064520;28;19929;-65
2022/08/22 08:23:53;;;;;;;;;;;27.80;81.50;;;;;;5044771;28;19940;-65
2022/08/22 08:26:23;;;;;;;;;;;27.40;78.00;;;;;;5051927;28;20020;-65
2022/08/22 08:28:49;;;;;;;;;;;26.00;79.70;;;;;;5040587;28;20016;-64
2022/08/22 08:31:20;;;;;;;;;;;25.50;86.40;;;;;;5060961;28;20363;-65
2022/08/22 08:33:48;;;;;;;;;;;27.10;79.50;;;;;;5067483;28;19924;-65
2022/08/22 08:36:24;;;;;;;;;;;29.00;71.70;;;;;;5046716;28;20413;-65
2022/08/22 08:38:55;;;;;;;;;;;30.70;56.30;;;;;;5053238;28;20016;-65
2022/08/22 08:41:48;;;;;;;;;;;29.10;54.40;;;;;;5054243;28;19929;-65
2022/08/22 08:44:25;;;;;;;;;;;28.70;56.00;;;;;;5048373;28;19925;-65
2022/08/22 08:47:03;;;;;;;;;;;29.20;55.20;;;;;;5053979;28;19928;-65
2022/08/22 08:49:41;;;;;;;;;;;30.10;50.30;;;;;;5042702;28;19955;-66
2022/08/22 08:52:26;;;;;;;;;;;28.20;55.10;;;;;;5048929;28;19939;-65
2022/08/22 08:55:01;;;;;;;;;;;26.00;61.10;;;;;;5043139;28;19940;-65
2022/08/22 08:57:43;;;;;;;;;;;25.70;66.60;;;;;;5052867;28;19960;-65
2022/08/22 09:00:13;;;;;;;;;;;26.70;65.60;;;;;;5054915;28;19933;-65
2022/08/22 09:02:48;;;;;;;;;;;25.80;68.20;;;;;;5045554;28;20016;-65
2022/08/22 09:05:34;;;;;;;;;;;26.20;67.80;;;;;;5046326;28;19924;-65
2022/08/22 09:08:09;;;;;;;;;;;26.60;65.60;;;;;;5055371;28;20443;-65
2022/08/22 09:10:46;;;;;;;;;;;28.30;59.00;;;;;;5067730;28;19932;-63
2022/08/22 09:13:27;;;;;;;;;;;26.70;61.10;;;;;;5041561;28;19932;-64
2022/08/22 09:16:05;;;;;;;;;;;27.20;63.30;;;;;;5060670;28;20344;-66
2022/08/22 09:18:38;;;;;;;;;;;26.90;62.40;;;;;;5051580;28;19932;-65
2022/08/22 09:21:12;;;;;;;;;;;27.30;60.70;;;;;;5059488;28;20015;-65
2022/08/22 09:24:07;;;;;;;;;;;27.80;59.70;;;;;;5057120;28;20023;-65
2022/08/22 09:26:44;;;;;;;;;;;27.90;57.90;;;;;;5047768;28;19925;-65
2022/08/22 09:29:18;;;;;;;;;;;26.40;62.90;;;;;;5047502;28;19999;-65
2022/08/22 09:31:47;;;;;;;;;;;26.70;61.70;;;;;;5053016;28;20015;-65
2022/08/22 09:34:17;;;;;;;;;;;27.30;59.80;;;;;;5056194;28;19925;-64
2022/08/22 09:36:58;;;;;;;;;;;26.80;59.90;;;;;;5047196;28;19931;-66
2022/08/22 09:39:30;;;;;;;;;;;27.20;58.60;;;;;;5057820;28;19970;-65
2022/08/22 09:42:01;;;;;;;;;;;28.60;55.40;;;;;;5037417;28;20234;-65
2022/08/22 09:44:34;;;;;;;;;;;28.90;53.70;;;;;;5053846;28;19932;-67
2022/08/22 09:47:05;;;;;;;;;;;30.40;49.90;;;;;;5054079;28;19925;-67
2022/08/22 09:49:43;;;;;;;;;;;28.60;50.00;;;;;;5043166;28;20442;-67
2022/08/22 09:52:20;;;;;;;;;;;29.90;47.80;;;;;;5046492;28;20007;-67
2022/08/22 09:54:49;;;;;;;;;;;30.50;46.00;;;;;;5051754;28;20359;-66
2022/08/22 09:57:19;;;;;;;;;;;30.60;44.00;;;;;;5055103;28;20016;-66
2022/08/22 09:59:51;;;;;;;;;;;30.40;42.80;;;;;;5048952;28;20004;-67
2022/08/22 10:02:27;;;;;;;;;;;29.90;43.80;;;;;;5047815;28;20015;-67
2022/08/22 10:05:00;;;;;;;;;;;27.50;47.60;;;;;;5050297;28;19925;-65
2022/08/22 10:07:35;;;;;;;;;;;26.40;52.10;;;;;;5043116;28;19926;-67
2022/08/22 10:10:05;;;;;;;;;;;25.50;55.90;;;;;;5047422;28;19948;-67
2022/08/22 10:12:44;;;;;;;;;;;24.90;58.90;;;;;;5052720;28;20388;-66
2022/08/22 10:15:16;;;;;;;;;;;24.90;58.60;;;;;;5050744;28;19955;-66
2022/08/22 10:17:49;;;;;;;;;;;24.60;61.90;;;;;;5043278;28;20027;-66
2022/08/22 10:20:22;;;;;;;;;;;24.80;63.30;;;;;;5046434;28;19971;-67
2022/08/22 10:22:56;;;;;;;;;;;24.90;61.60;;;;;;5046888;28;19933;-67
2022/08/22 10:25:29;;;;;;;;;;;24.90;64.00;;;;;;5051528;28;19929;-67
2022/08/22 10:28:07;;;;;;;;;;;25.10;61.90;;;;;;5051115;28;20019;-67
2022/08/22 10:30:36;;;;;;;;;;;25.60;60.00;;;;;;5047599;28;19939;-67
2022/08/22 10:33:06;;;;;;;;;;;25.00;63.20;;;;;;5043801;28;19940;-66
2022/08/22 10:35:34;;;;;;;;;;;24.70;64.10;;;;;;5040543;28;19933;-67
2022/08/22 10:38:05;;;;;;;;;;;25.00;62.00;;;;;;5039482;28;19933;-67
2022/08/22 10:40:36;;;;;;;;;;;25.20;61.20;;;;;;5041549;28;20361;-67
2022/08/22 10:43:07;;;;;;;;;;;24.90;58.80;;;;;;5045078;28;20008;-67
2022/08/22 10:45:36;;;;;;;;;;;24.90;59.20;;;;;;5058974;28;20011;-68
2022/08/22 10:48:30;;;;;;;;;;;24.60;57.80;;;;;;5042385;28;19929;-67
2022/08/22 10:51:05;;;;;;;;;;;24.70;57.40;;;;;;5047048;28;19933;-68
2022/08/22 10:53:35;;;;;;;;;;;24.80;55.30;;;;;;5047450;28;19925;-68
2022/08/22 10:56:09;;;;;;;;;;;24.80;54.70;;;;;;5051662;28;19931;-67
2022/08/22 10:58:38;;;;;;;;;;;24.90;55.00;;;;;;5048959;28;19929;-67
2022/08/22 11:01:06;;;;;;;;;;;25.10;54.30;;;;;;5042742;28;20399;-67
2022/08/22 11:03:39;;;;;;;;;;;25.30;54.40;;;;;;5043347;28;19932;-67
2022/08/22 11:06:09;;;;;;;;;;;25.10;56.20;;;;;;5044963;28;19925;-67
2022/08/22 11:08:54;;;;;;;;;;;25.00;57.80;;;;;;5050176;28;19930;-67
2022/08/22 11:11:36;;;;;;;;;;;24.60;57.00;;;;;;5049174;28;20359;-66
2022/08/22 11:14:16;;;;;;;;;;;24.80;55.20;;;;;;5036104;28;19939;-68
2022/08/22 11:16:48;;;;;;;;;;;24.70;55.30;;;;;;5054565;28;20014;-67
2022/08/22 11:19:18;;;;;;;;;;;25.20;55.00;;;;;;5050090;28;19995;-67
2022/08/22 11:21:48;;;;;;;;;;;25.60;54.00;;;;;;5048099;28;19924;-67
2022/08/22 11:24:36;;;;;;;;;;;25.80;53.50;;;;;;5045532;28;19950;-67
2022/08/22 11:27:07;;;;;;;;;;;25.70;54.10;;;;;;5046793;28;20023;-67
2022/08/22 11:29:39;;;;;;;;;;;26.00;53.20;;;;;;5049664;28;19925;-65
2022/08/22 11:32:11;;;;;;;;;;;26.30;51.40;;;;;;5053509;28;20023;-67
2022/08/22 11:34:44;;;;;;;;;;;25.40;52.20;;;;;;5062349;28;20387;-65
2022/08/22 11:37:17;;;;;;;;;;;26.00;53.60;;;;;;5049367;28;20012;-66
2022/08/22 11:39:49;;;;;;;;;;;25.90;53.20;;;;;;5052533;28;19932;-67
2022/08/22 11:42:23;;;;;;;;;;;26.50;48.90;;;;;;5051660;28;20362;-66
2022/08/22 11:44:53;;;;;;;;;;;26.80;46.60;;;;;;5057229;28;20017;-68
2022/08/22 11:47:22;;;;;;;;;;;27.20;46.30;;;;;;5061895;28;19932;-67
2022/08/22 11:49:52;;;;;;;;;;;27.60;43.00;;;;;;5061044;28;19964;-67
2022/08/22 11:52:24;;;;;;;;;;;27.50;43.30;;;;;;5057198;28;20018;-67
2022/08/22 11:55:15;;;;;;;;;;;27.00;43.70;;;;;;5048175;28;20024;-67
2022/08/22 11:57:43;;;;;;;;;;;27.00;44.50;;;;;;5031116;28;19979;-67
2022/08/22 12:00:25;;;;;;;;;;;27.50;41.30;;;;;;5045902;28;20008;-67
2022/08/22 12:03:11;;;;;;;;;;;27.80;41.00;;;;;;5045631;28;20457;-67
2022/08/22 12:05:44;;;;;;;;;;;26.90;42.30;;;;;;5041174;28;19925;-67
2022/08/22 12:08:13;;;;;;;;;;;26.50;44.30;;;;;;5038761;28;19925;-67
2022/08/22 12:10:45;;;;;;;;;;;26.00;44.40;;;;;;5042684;28;19925;-67
2022/08/22 12:13:14;;;;;;;;;;;25.80;45.50;;;;;;5053837;28;19948;-67
2022/08/22 12:15:47;;;;;;;;;;;26.60;44.60;;;;;;5061433;28;19971;-66
2022/08/22 12:18:23;;;;;;;;;;;27.00;43.30;;;;;;5060039;28;19975;-66
2022/08/22 12:21:07;;;;;;;;;;;27.30;42.60;;;;;;5072310;28;20015;-66
2022/08/22 12:23:43;;;;;;;;;;;27.70;41.10;;;;;;5059137;28;19963;-66
2022/08/22 12:26:16;;;;;;;;;;;26.90;39.40;;;;;;5067784;28;20395;-67
2022/08/22 12:28:51;;;;;;;;;;;26.60;40.30;;;;;;5049758;28;19924;-67
2022/08/22 12:31:35;;;;;;;;;;;26.80;39.20;;;;;;5032126;28;19929;-67
2022/08/22 12:34:09;;;;;;;;;;;27.00;39.20;;;;;;5067915;28;19924;-67
2022/08/22 12:36:56;;;;;;;;;;;26.50;40.50;;;;;;5052548;28;20056;-67
2022/08/22 12:39:41;;;;;;;;;;;26.90;39.60;;;;;;5055847;28;19924;-66
2022/08/22 12:42:16;;;;;;;;;;;26.80;38.10;;;;;;5036220;28;20306;-66
2022/08/22 12:44:50;;;;;;;;;;;26.90;38.30;;;;;;5058167;28;20023;-66
2022/08/22 12:47:33;;;;;;;;;;;26.40;38.70;;;;;;5052040;28;19986;-66
2022/08/22 12:50:12;;;;;;;;;;;25.90;41.10;;;;;;5057640;28;19966;-66
2022/08/22 12:52:48;;;;;;;;;;;26.30;40.20;;;;;;5058006;28;19936;-66
2022/08/22 12:55:23;;;;;;;;;;;26.40;40.40;;;;;;5068151;28;20280;-66
2022/08/22 12:57:55;;;;;;;;;;;26.20;39.60;;;;;;5053468;28;19933;-65
2022/08/22 13:00:29;;;;;;;;;;;26.00;41.00;;;;;;5053161;28;19925;-66
2022/08/22 13:02:56;;;;;;;;;;;26.00;41.50;;;;;;5057586;28;20035;-67
2022/08/22 13:05:25;;;;;;;;;;;26.10;40.50;;;;;;5058144;28;19972;-67
2022/08/22 13:07:54;;;;;;;;;;;26.00;40.00;;;;;;5061329;28;20284;-65
2022/08/22 13:10:31;;;;;;;;;;;25.90;40.10;;;;;;5043908;28;20066;-66
2022/08/22 13:13:01;;;;;;;;;;;26.30;39.20;;;;;;5047875;28;20298;-67
2022/08/22 13:15:29;;;;;;;;;;;26.90;39.60;;;;;;5047258;28;20406;-66
2022/08/22 13:17:57;;;;;;;;;;;27.40;36.70;;;;;;5045766;28;19994;-67
2022/08/22 13:20:27;;;;;;;;;;;27.90;37.10;;;;;;5051675;28;19925;-67
2022/08/22 13:22:54;;;;;;;;;;;28.00;35.00;;;;;;5048382;28;19936;-67
2022/08/22 13:25:24;;;;;;;;;;;27.40;35.60;;;;;;5061750;28;19967;-67
2022/08/22 13:27:52;;;;;;;;;;;27.80;35.80;;;;;;5052294;28;19929;-65
2022/08/22 13:30:21;;;;;;;;;;;28.30;34.50;;;;;;5065330;28;20023;-66
2022/08/22 13:32:49;;;;;;;;;;;28.90;32.30;;;;;;5061181;28;20027;-67
2022/08/22 13:35:21;;;;;;;;;;;29.10;32.20;;;;;;5062235;28;20031;-67
2022/08/22 13:37:51;;;;;;;;;;;28.60;32.50;;;;;;5053680;28;19924;-67
2022/08/22 13:40:23;;;;;;;;;;;28.90;31.60;;;;;;5048846;28;19932;-67
2022/08/22 13:42:51;;;;;;;;;;;28.40;31.50;;;;;;5057147;28;19925;-67
2022/08/22 13:45:22;;;;;;;;;;;27.80;32.70;;;;;;5050785;28;19933;-67
2022/08/22 13:47:52;;;;;;;;;;;28.00;33.90;;;;;;5056910;28;19976;-67
2022/08/22 13:50:20;;;;;;;;;;;28.50;32.00;;;;;;5051565;28;20286;-67
2022/08/22 13:52:50;;;;;;;;;;;27.70;32.30;;;;;;5055384;28;20018;-67
2022/08/22 13:55:18;;;;;;;;;;;26.90;33.40;;;;;;5063078;28;19924;-67
2022/08/22 13:57:46;;;;;;;;;;;27.00;34.70;;;;;;5065592;28;19963;-67
2022/08/22 14:00:42;;;;;;;;;;;27.40;34.70;;;;;;5054372;28;19946;-67
2022/08/22 14:03:12;;;;;;;;;;;28.00;33.40;;;;;;5062101;28;20379;-67
2022/08/22 14:05:41;;;;;;;;;;;28.10;32.90;;;;;;5054858;28;19929;-67
2022/08/22 14:08:16;;;;;;;;;;;28.00;31.70;;;;;;5046555;28;20008;-67
2022/08/22 14:10:45;;;;;;;;;;;27.70;32.90;;;;;;5054702;28;19978;-68
2022/08/22 14:13:24;;;;;;;;;;;27.80;32.10;;;;;;5048617;28;20000;-66
2022/08/22 14:15:57;;;;;;;;;;;28.10;31.50;;;;;;5058057;28;19924;-66
2022/08/22 14:18:27;;;;;;;;;;;28.30;30.40;;;;;;5045669;28;19925;-66
2022/08/22 14:21:14;;;;;;;;;;;28.50;30.00;;;;;;5057624;28;20023;-67
2022/08/22 14:23:42;;;;;;;;;;;27.80;31.70;;;;;;5051604;28;19973;-66
2022/08/22 14:26:09;;;;;;;;;;;27.90;31.10;;;;;;5047899;28;20607;-66
2022/08/22 14:28:37;;;;;;;;;;;27.40;32.50;;;;;;5047240;28;19925;-67
2022/08/22 14:31:07;;;;;;;;;;;27.70;32.40;;;;;;5058800;28;20391;-66
2022/08/22 14:33:35;;;;;;;;;;;27.80;31.70;;;;;;5066697;28;19924;-67
2022/08/22 14:36:04;;;;;;;;;;;28.00;31.20;;;;;;5050419;28;19929;-66
2022/08/22 14:38:35;;;;;;;;;;;27.70;32.50;;;;;;5051040;28;19932;-67
2022/08/22 14:41:04;;;;;;;;;;;27.50;32.20;;;;;;5058729;28;20445;-67
2022/08/22 14:43:48;;;;;;;;;;;27.90;31.30;;;;;;5047810;28;20394;-67
2022/08/22 14:46:24;;;;;;;;;;;27.60;31.40;;;;;;5049233;28;19932;-67
2022/08/22 14:49:04;;;;;;;;;;;27.80;31.50;;;;;;5049233;28;20246;-66
2022/08/22 14:51:32;;;;;;;;;;;27.60;31.60;;;;;;5059607;28;20015;-66
2022/08/22 14:54:08;;;;;;;;;;;28.00;32.00;;;;;;5060966;28;19933;-67